sensor_id;sensor_type;location;lat;lon;timestamp;P1;durP1;ratioP1;P2;durP2;ratioP2
8279;SDS011;8335;42.646;23.380;2023-03-02T00:02:16;6.53;;;4.13;;
8279;SDS011;8335;42.646;23.380;2023-03-02T00:04:47;5.33;;;4.47;;
8279;SDS011;8335;42.646;23.380;2023-03-02T00:07:18;5.23;;;4.03;;
8279;SDS011;8335;42.646;23.380;2023-03-02T00:09:48;5.43;;;4.40;;
8279;SDS011;8335;42.646;23.380;2023-03-02T00:12:15;5.97;;;4.20;;
8279;SDS011;8335;42.646;23.380;2023-03-02T00:14:42;5.30;;;4.30;;
8279;SDS011;8335;42.646;23.380;2023-03-02T00:17:09;5.07;;;3.87;;
8279;SDS011;8335;42.646;23.380;2023-03-02T00:19:36;5.57;;;4.27;;
8279;SDS011;8335;42.646;23.380;2023-03-02T00:22:03;5.53;;;4.00;;
8279;SDS011;8335;42.646;23.380;2023-03-02T00:24:30;5.43;;;3.77;;
8279;SDS011;8335;42.646;23.380;2023-03-02T00:26:59;4.37;;;3.60;;
8279;SDS011;8335;42.646;23.380;2023-03-02T00:29:25;4.73;;;3.77;;
8279;SDS011;8335;42.646;23.380;2023-03-02T00:31:52;4.80;;;3.43;;
8279;SDS011;8335;42.646;23.380;2023-03-02T00:34:19;4.87;;;3.97;;
8279;SDS011;8335;42.646;23.380;2023-03-02T00:36:46;4.30;;;3.40;;
8279;SDS011;8335;42.646;23.380;2023-03-02T00:39:13;5.07;;;3.77;;
8279;SDS011;8335;42.646;23.380;2023-03-02T00:41:44;4.47;;;3.43;;
8279;SDS011;8335;42.646;23.380;2023-03-02T00:44:13;4.43;;;3.63;;
8279;SDS011;8335;42.646;23.380;2023-03-02T00:46:41;4.70;;;3.30;;
8279;SDS011;8335;42.646;23.380;2023-03-02T00:49:09;6.10;;;3.80;;
8279;SDS011;8335;42.646;23.380;2023-03-02T00:51:35;3.97;;;3.13;;
8279;SDS011;8335;42.646;23.380;2023-03-02T00:54:02;6.23;;;3.47;;
8279;SDS011;8335;42.646;23.380;2023-03-02T00:56:29;3.67;;;3.07;;
8279;SDS011;8335;42.646;23.380;2023-03-02T00:58:56;4.03;;;3.43;;
8279;SDS011;8335;42.646;23.380;2023-03-02T01:01:24;5.60;;;3.53;;
8279;SDS011;8335;42.646;23.380;2023-03-02T01:03:51;4.03;;;3.57;;
8279;SDS011;8335;42.646;23.380;2023-03-02T01:06:18;4.60;;;3.27;;
8279;SDS011;8335;42.646;23.380;2023-03-02T01:08:46;3.97;;;3.37;;
8279;SDS011;8335;42.646;23.380;2023-03-02T01:11:13;4.67;;;3.17;;
8279;SDS011;8335;42.646;23.380;2023-03-02T01:13:41;4.87;;;3.10;;
8279;SDS011;8335;42.646;23.380;2023-03-02T01:16:08;3.80;;;3.30;;
8279;SDS011;8335;42.646;23.380;2023-03-02T01:18:37;4.30;;;3.13;;
8279;SDS011;8335;42.646;23.380;2023-03-02T01:21:05;5.13;;;3.17;;
8279;SDS011;8335;42.646;23.380;2023-03-02T01:23:33;3.63;;;2.93;;
8279;SDS011;8335;42.646;23.380;2023-03-02T01:26:00;4.27;;;3.10;;
8279;SDS011;8335;42.646;23.380;2023-03-02T01:28:28;3.47;;;3.07;;
8279;SDS011;8335;42.646;23.380;2023-03-02T01:30:54;3.30;;;2.90;;
8279;SDS011;8335;42.646;23.380;2023-03-02T01:33:21;3.00;;;2.50;;
8279;SDS011;8335;42.646;23.380;2023-03-02T01:35:49;3.47;;;2.87;;
8279;SDS011;8335;42.646;23.380;2023-03-02T01:38:16;4.57;;;2.70;;
8279;SDS011;8335;42.646;23.380;2023-03-02T01:40:43;2.90;;;2.47;;
8279;SDS011;8335;42.646;23.380;2023-03-02T01:43:10;2.90;;;2.37;;
8279;SDS011;8335;42.646;23.380;2023-03-02T01:45:46;3.70;;;2.80;;
8279;SDS011;8335;42.646;23.380;2023-03-02T01:48:17;3.20;;;2.50;;
8279;SDS011;8335;42.646;23.380;2023-03-02T01:50:50;2.40;;;2.20;;
8279;SDS011;8335;42.646;23.380;2023-03-02T01:53:18;3.07;;;2.60;;
8279;SDS011;8335;42.646;23.380;2023-03-02T01:55:46;2.67;;;2.17;;
8279;SDS011;8335;42.646;23.380;2023-03-02T01:58:14;2.73;;;2.23;;
8279;SDS011;8335;42.646;23.380;2023-03-02T02:00:42;3.17;;;2.40;;
8279;SDS011;8335;42.646;23.380;2023-03-02T02:03:11;3.00;;;2.43;;
8279;SDS011;8335;42.646;23.380;2023-03-02T02:05:45;3.40;;;2.43;;
8279;SDS011;8335;42.646;23.380;2023-03-02T02:08:20;2.70;;;2.20;;
8279;SDS011;8335;42.646;23.380;2023-03-02T02:10:48;4.13;;;2.90;;
8279;SDS011;8335;42.646;23.380;2023-03-02T02:13:15;2.37;;;2.17;;
8279;SDS011;8335;42.646;23.380;2023-03-02T02:15:41;2.40;;;2.20;;
8279;SDS011;8335;42.646;23.380;2023-03-02T02:18:08;3.53;;;2.53;;
8279;SDS011;8335;42.646;23.380;2023-03-02T02:20:36;5.67;;;2.70;;
8279;SDS011;8335;42.646;23.380;2023-03-02T02:23:12;3.00;;;2.70;;
8279;SDS011;8335;42.646;23.380;2023-03-02T02:25:55;3.27;;;2.60;;
8279;SDS011;8335;42.646;23.380;2023-03-02T02:28:28;3.17;;;2.60;;
8279;SDS011;8335;42.646;23.380;2023-03-02T02:31:04;2.80;;;2.47;;
8279;SDS011;8335;42.646;23.380;2023-03-02T02:33:36;4.27;;;2.50;;
8279;SDS011;8335;42.646;23.380;2023-03-02T02:36:05;3.87;;;2.60;;
8279;SDS011;8335;42.646;23.380;2023-03-02T02:38:34;2.90;;;2.50;;
8279;SDS011;8335;42.646;23.380;2023-03-02T02:41:04;3.17;;;2.57;;
8279;SDS011;8335;42.646;23.380;2023-03-02T02:43:36;2.80;;;2.30;;
8279;SDS011;8335;42.646;23.380;2023-03-02T02:46:03;3.70;;;2.60;;
8279;SDS011;8335;42.646;23.380;2023-03-02T02:48:30;2.60;;;2.40;;
8279;SDS011;8335;42.646;23.380;2023-03-02T02:50:57;3.77;;;2.40;;
8279;SDS011;8335;42.646;23.380;2023-03-02T02:53:28;4.47;;;2.33;;
8279;SDS011;8335;42.646;23.380;2023-03-02T02:56:00;2.13;;;1.93;;
8279;SDS011;8335;42.646;23.380;2023-03-02T02:58:32;3.37;;;2.77;;
8279;SDS011;8335;42.646;23.380;2023-03-02T03:01:03;2.80;;;2.37;;
8279;SDS011;8335;42.646;23.380;2023-03-02T03:03:31;3.33;;;2.40;;
8279;SDS011;8335;42.646;23.380;2023-03-02T03:05:59;3.47;;;2.40;;
8279;SDS011;8335;42.646;23.380;2023-03-02T03:11:18;3.77;;;2.70;;
8279;SDS011;8335;42.646;23.380;2023-03-02T03:13:50;2.90;;;2.40;;
8279;SDS011;8335;42.646;23.380;2023-03-02T03:16:22;3.17;;;2.60;;
8279;SDS011;8335;42.646;23.380;2023-03-02T03:18:50;3.77;;;2.50;;
8279;SDS011;8335;42.646;23.380;2023-03-02T03:21:19;3.07;;;2.33;;
8279;SDS011;8335;42.646;23.380;2023-03-02T03:23:46;2.90;;;2.40;;
8279;SDS011;8335;42.646;23.380;2023-03-02T03:26:14;4.17;;;2.53;;
8279;SDS011;8335;42.646;23.380;2023-03-02T03:28:40;4.40;;;2.93;;
8279;SDS011;8335;42.646;23.380;2023-03-02T03:31:09;2.97;;;2.30;;
8279;SDS011;8335;42.646;23.380;2023-03-02T03:33:35;2.63;;;2.40;;
8279;SDS011;8335;42.646;23.380;2023-03-02T03:36:02;2.60;;;2.23;;
8279;SDS011;8335;42.646;23.380;2023-03-02T03:38:30;4.27;;;2.27;;
8279;SDS011;8335;42.646;23.380;2023-03-02T03:40:56;3.33;;;2.57;;
8279;SDS011;8335;42.646;23.380;2023-03-02T03:43:23;3.83;;;2.70;;
8279;SDS011;8335;42.646;23.380;2023-03-02T03:45:50;4.10;;;2.60;;
8279;SDS011;8335;42.646;23.380;2023-03-02T03:48:18;3.70;;;2.80;;
8279;SDS011;8335;42.646;23.380;2023-03-02T03:50:45;3.10;;;2.80;;
8279;SDS011;8335;42.646;23.380;2023-03-02T03:53:11;3.93;;;2.83;;
8279;SDS011;8335;42.646;23.380;2023-03-02T03:55:38;3.00;;;2.70;;
8279;SDS011;8335;42.646;23.380;2023-03-02T03:58:05;3.30;;;2.77;;
8279;SDS011;8335;42.646;23.380;2023-03-02T04:00:32;3.43;;;3.13;;
8279;SDS011;8335;42.646;23.380;2023-03-02T04:02:59;3.50;;;3.20;;
8279;SDS011;8335;42.646;23.380;2023-03-02T04:05:27;3.83;;;3.40;;
8279;SDS011;8335;42.646;23.380;2023-03-02T04:07:54;4.03;;;3.57;;
8279;SDS011;8335;42.646;23.380;2023-03-02T04:10:23;4.80;;;4.27;;
8279;SDS011;8335;42.646;23.380;2023-03-02T04:12:50;2.70;;;2.50;;
8279;SDS011;8335;42.646;23.380;2023-03-02T04:15:16;3.23;;;2.90;;
8279;SDS011;8335;42.646;23.380;2023-03-02T04:17:43;2.83;;;2.47;;
8279;SDS011;8335;42.646;23.380;2023-03-02T04:20:10;3.07;;;2.60;;
8279;SDS011;8335;42.646;23.380;2023-03-02T04:22:43;3.10;;;2.80;;
8279;SDS011;8335;42.646;23.380;2023-03-02T04:25:11;3.40;;;3.07;;
8279;SDS011;8335;42.646;23.380;2023-03-02T04:27:39;4.07;;;3.40;;
8279;SDS011;8335;42.646;23.380;2023-03-02T04:30:07;7.20;;;3.60;;
8279;SDS011;8335;42.646;23.380;2023-03-02T04:32:34;5.73;;;4.00;;
8279;SDS011;8335;42.646;23.380;2023-03-02T04:35:01;5.30;;;4.30;;
8279;SDS011;8335;42.646;23.380;2023-03-02T04:37:28;5.67;;;4.17;;
8279;SDS011;8335;42.646;23.380;2023-03-02T04:39:57;5.47;;;4.83;;
8279;SDS011;8335;42.646;23.380;2023-03-02T04:42:23;7.13;;;4.87;;
8279;SDS011;8335;42.646;23.380;2023-03-02T04:44:50;5.93;;;4.50;;
8279;SDS011;8335;42.646;23.380;2023-03-02T04:47:17;5.40;;;4.50;;
8279;SDS011;8335;42.646;23.380;2023-03-02T04:49:44;5.97;;;5.00;;
8279;SDS011;8335;42.646;23.380;2023-03-02T04:52:10;6.57;;;5.40;;
8279;SDS011;8335;42.646;23.380;2023-03-02T04:54:37;5.70;;;5.10;;
8279;SDS011;8335;42.646;23.380;2023-03-02T04:57:05;6.33;;;5.00;;
8279;SDS011;8335;42.646;23.380;2023-03-02T04:59:32;5.63;;;4.73;;
8279;SDS011;8335;42.646;23.380;2023-03-02T05:01:59;6.50;;;4.77;;
8279;SDS011;8335;42.646;23.380;2023-03-02T05:04:27;10.27;;;5.20;;
8279;SDS011;8335;42.646;23.380;2023-03-02T05:06:54;5.90;;;4.97;;
8279;SDS011;8335;42.646;23.380;2023-03-02T05:09:21;5.83;;;4.93;;
8279;SDS011;8335;42.646;23.380;2023-03-02T05:11:51;6.33;;;5.40;;
8279;SDS011;8335;42.646;23.380;2023-03-02T05:14:20;6.97;;;5.60;;
8279;SDS011;8335;42.646;23.380;2023-03-02T05:16:48;7.13;;;5.83;;
8279;SDS011;8335;42.646;23.380;2023-03-02T05:19:14;7.73;;;6.30;;
8279;SDS011;8335;42.646;23.380;2023-03-02T05:21:41;7.63;;;6.07;;
8279;SDS011;8335;42.646;23.380;2023-03-02T05:24:08;7.00;;;6.10;;
8279;SDS011;8335;42.646;23.380;2023-03-02T05:26:36;8.73;;;6.70;;
8279;SDS011;8335;42.646;23.380;2023-03-02T05:29:03;7.47;;;6.13;;
8279;SDS011;8335;42.646;23.380;2023-03-02T05:31:33;8.80;;;7.10;;
8279;SDS011;8335;42.646;23.380;2023-03-02T05:34:01;8.80;;;6.57;;
8279;SDS011;8335;42.646;23.380;2023-03-02T05:36:28;7.63;;;6.47;;
8279;SDS011;8335;42.646;23.380;2023-03-02T05:38:55;8.37;;;6.57;;
8279;SDS011;8335;42.646;23.380;2023-03-02T05:41:22;7.63;;;6.30;;
8279;SDS011;8335;42.646;23.380;2023-03-02T05:43:49;8.53;;;6.30;;
8279;SDS011;8335;42.646;23.380;2023-03-02T05:46:16;8.93;;;6.60;;
8279;SDS011;8335;42.646;23.380;2023-03-02T05:48:44;7.43;;;5.87;;
8279;SDS011;8335;42.646;23.380;2023-03-02T05:51:11;8.90;;;6.03;;
8279;SDS011;8335;42.646;23.380;2023-03-02T05:53:38;8.27;;;6.37;;
8279;SDS011;8335;42.646;23.380;2023-03-02T05:56:05;7.23;;;5.73;;
8279;SDS011;8335;42.646;23.380;2023-03-02T05:58:33;7.00;;;5.87;;
8279;SDS011;8335;42.646;23.380;2023-03-02T06:00:59;7.20;;;5.93;;
8279;SDS011;8335;42.646;23.380;2023-03-02T06:03:26;7.93;;;6.30;;
8279;SDS011;8335;42.646;23.380;2023-03-02T06:05:54;7.53;;;5.30;;
8279;SDS011;8335;42.646;23.380;2023-03-02T06:08:21;8.63;;;5.47;;
8279;SDS011;8335;42.646;23.380;2023-03-02T06:10:48;8.50;;;5.93;;
8279;SDS011;8335;42.646;23.380;2023-03-02T06:13:15;7.77;;;6.20;;
8279;SDS011;8335;42.646;23.380;2023-03-02T06:15:42;7.27;;;6.10;;
8279;SDS011;8335;42.646;23.380;2023-03-02T06:18:09;8.93;;;5.90;;
8279;SDS011;8335;42.646;23.380;2023-03-02T06:20:38;7.27;;;6.30;;
8279;SDS011;8335;42.646;23.380;2023-03-02T06:23:07;10.70;;;6.90;;
8279;SDS011;8335;42.646;23.380;2023-03-02T06:25:36;8.77;;;7.13;;
8279;SDS011;8335;42.646;23.380;2023-03-02T06:28:07;10.80;;;7.47;;
8279;SDS011;8335;42.646;23.380;2023-03-02T06:30:34;9.30;;;7.60;;
8279;SDS011;8335;42.646;23.380;2023-03-02T06:33:01;10.33;;;7.30;;
8279;SDS011;8335;42.646;23.380;2023-03-02T06:35:28;9.00;;;6.93;;
8279;SDS011;8335;42.646;23.380;2023-03-02T06:37:55;9.33;;;7.10;;
8279;SDS011;8335;42.646;23.380;2023-03-02T06:40:23;8.97;;;6.63;;
8279;SDS011;8335;42.646;23.380;2023-03-02T06:42:49;8.50;;;6.63;;
8279;SDS011;8335;42.646;23.380;2023-03-02T06:45:16;11.63;;;6.67;;
8279;SDS011;8335;42.646;23.380;2023-03-02T06:47:43;7.70;;;6.77;;
8279;SDS011;8335;42.646;23.380;2023-03-02T06:50:10;8.97;;;7.27;;
8279;SDS011;8335;42.646;23.380;2023-03-02T06:52:37;12.83;;;6.93;;
8279;SDS011;8335;42.646;23.380;2023-03-02T06:55:04;8.87;;;6.90;;
8279;SDS011;8335;42.646;23.380;2023-03-02T06:57:33;9.93;;;7.57;;
8279;SDS011;8335;42.646;23.380;2023-03-02T07:00:00;11.17;;;7.90;;
8279;SDS011;8335;42.646;23.380;2023-03-02T07:02:30;11.13;;;8.50;;
8279;SDS011;8335;42.646;23.380;2023-03-02T07:04:57;10.20;;;7.20;;
8279;SDS011;8335;42.646;23.380;2023-03-02T07:07:24;11.23;;;7.53;;
8279;SDS011;8335;42.646;23.380;2023-03-02T07:09:51;9.53;;;7.30;;
8279;SDS011;8335;42.646;23.380;2023-03-02T07:12:17;11.87;;;7.70;;
8279;SDS011;8335;42.646;23.380;2023-03-02T07:14:45;10.80;;;7.33;;
8279;SDS011;8335;42.646;23.380;2023-03-02T07:17:12;10.13;;;7.60;;
8279;SDS011;8335;42.646;23.380;2023-03-02T07:19:39;9.37;;;6.70;;
8279;SDS011;8335;42.646;23.380;2023-03-02T07:22:06;10.43;;;6.90;;
8279;SDS011;8335;42.646;23.380;2023-03-02T07:24:32;9.73;;;6.90;;
8279;SDS011;8335;42.646;23.380;2023-03-02T07:26:59;10.93;;;7.63;;
8279;SDS011;8335;42.646;23.380;2023-03-02T07:29:26;12.57;;;7.90;;
8279;SDS011;8335;42.646;23.380;2023-03-02T07:31:54;10.03;;;7.33;;
8279;SDS011;8335;42.646;23.380;2023-03-02T07:34:22;13.33;;;8.10;;
8279;SDS011;8335;42.646;23.380;2023-03-02T07:36:49;11.53;;;7.87;;
8279;SDS011;8335;42.646;23.380;2023-03-02T07:39:16;15.83;;;8.77;;
8279;SDS011;8335;42.646;23.380;2023-03-02T07:41:43;15.97;;;8.23;;
8279;SDS011;8335;42.646;23.380;2023-03-02T07:44:10;13.77;;;8.40;;
8279;SDS011;8335;42.646;23.380;2023-03-02T07:46:37;12.13;;;7.17;;
8279;SDS011;8335;42.646;23.380;2023-03-02T07:49:05;12.33;;;6.93;;
8279;SDS011;8335;42.646;23.380;2023-03-02T07:51:32;12.13;;;7.50;;
8279;SDS011;8335;42.646;23.380;2023-03-02T07:53:59;10.83;;;6.57;;
8279;SDS011;8335;42.646;23.380;2023-03-02T07:56:27;10.13;;;7.00;;
8279;SDS011;8335;42.646;23.380;2023-03-02T07:58:54;9.93;;;6.43;;
8279;SDS011;8335;42.646;23.380;2023-03-02T08:01:20;7.57;;;6.30;;
8279;SDS011;8335;42.646;23.380;2023-03-02T08:03:47;8.10;;;5.57;;
8279;SDS011;8335;42.646;23.380;2023-03-02T08:06:15;8.57;;;6.20;;
8279;SDS011;8335;42.646;23.380;2023-03-02T08:08:42;9.40;;;6.10;;
8279;SDS011;8335;42.646;23.380;2023-03-02T08:11:17;9.10;;;6.00;;
8279;SDS011;8335;42.646;23.380;2023-03-02T08:13:44;11.70;;;5.97;;
8279;SDS011;8335;42.646;23.380;2023-03-02T08:16:12;9.03;;;5.33;;
8279;SDS011;8335;42.646;23.380;2023-03-02T08:18:39;9.00;;;5.80;;
8279;SDS011;8335;42.646;23.380;2023-03-02T08:21:09;9.33;;;6.43;;
8279;SDS011;8335;42.646;23.380;2023-03-02T08:23:38;7.30;;;5.97;;
8279;SDS011;8335;42.646;23.380;2023-03-02T08:26:05;8.20;;;6.17;;
8279;SDS011;8335;42.646;23.380;2023-03-02T08:28:32;7.40;;;5.67;;
8279;SDS011;8335;42.646;23.380;2023-03-02T08:31:00;8.13;;;6.50;;
8279;SDS011;8335;42.646;23.380;2023-03-02T08:33:28;8.80;;;6.87;;
8279;SDS011;8335;42.646;23.380;2023-03-02T08:35:56;10.87;;;6.83;;
8279;SDS011;8335;42.646;23.380;2023-03-02T08:38:24;12.27;;;7.43;;
8279;SDS011;8335;42.646;23.380;2023-03-02T08:40:53;11.43;;;7.00;;
8279;SDS011;8335;42.646;23.380;2023-03-02T08:43:20;10.00;;;7.63;;
8279;SDS011;8335;42.646;23.380;2023-03-02T08:45:49;9.33;;;7.47;;
8279;SDS011;8335;42.646;23.380;2023-03-02T08:48:16;10.77;;;7.83;;
8279;SDS011;8335;42.646;23.380;2023-03-02T08:50:43;11.70;;;7.33;;
8279;SDS011;8335;42.646;23.380;2023-03-02T08:53:10;9.17;;;7.00;;
8279;SDS011;8335;42.646;23.380;2023-03-02T08:55:36;9.60;;;7.10;;
8279;SDS011;8335;42.646;23.380;2023-03-02T08:58:05;17.40;;;9.53;;
8279;SDS011;8335;42.646;23.380;2023-03-02T09:00:31;12.00;;;7.43;;
8279;SDS011;8335;42.646;23.380;2023-03-02T09:02:58;9.90;;;7.33;;
8279;SDS011;8335;42.646;23.380;2023-03-02T09:05:26;11.30;;;7.40;;
8279;SDS011;8335;42.646;23.380;2023-03-02T09:07:53;9.53;;;7.60;;
8279;SDS011;8335;42.646;23.380;2023-03-02T09:10:19;12.07;;;7.87;;
8279;SDS011;8335;42.646;23.380;2023-03-02T09:12:46;11.03;;;7.83;;
8279;SDS011;8335;42.646;23.380;2023-03-02T09:15:14;9.87;;;7.30;;
8279;SDS011;8335;42.646;23.380;2023-03-02T09:17:41;8.90;;;7.03;;
8279;SDS011;8335;42.646;23.380;2023-03-02T09:20:09;13.03;;;7.77;;
8279;SDS011;8335;42.646;23.380;2023-03-02T09:22:36;9.07;;;7.13;;
8279;SDS011;8335;42.646;23.380;2023-03-02T09:25:03;9.40;;;7.60;;
8279;SDS011;8335;42.646;23.380;2023-03-02T09:27:31;10.90;;;7.00;;
8279;SDS011;8335;42.646;23.380;2023-03-02T09:29:58;12.37;;;7.43;;
8279;SDS011;8335;42.646;23.380;2023-03-02T09:32:26;15.80;;;7.93;;
8279;SDS011;8335;42.646;23.380;2023-03-02T09:34:53;7.83;;;6.60;;
8279;SDS011;8335;42.646;23.380;2023-03-02T09:37:19;14.03;;;7.67;;
8279;SDS011;8335;42.646;23.380;2023-03-02T09:39:46;8.90;;;7.47;;
8279;SDS011;8335;42.646;23.380;2023-03-02T09:42:16;10.07;;;7.60;;
8279;SDS011;8335;42.646;23.380;2023-03-02T09:44:56;9.60;;;8.00;;
8279;SDS011;8335;42.646;23.380;2023-03-02T09:47:31;10.70;;;7.57;;
8279;SDS011;8335;42.646;23.380;2023-03-02T09:50:13;9.83;;;7.13;;
8279;SDS011;8335;42.646;23.380;2023-03-02T09:52:49;9.97;;;6.60;;
8279;SDS011;8335;42.646;23.380;2023-03-02T09:55:26;9.57;;;6.67;;
8279;SDS011;8335;42.646;23.380;2023-03-02T09:57:57;10.73;;;7.47;;
8279;SDS011;8335;42.646;23.380;2023-03-02T10:00:29;11.47;;;7.53;;
8279;SDS011;8335;42.646;23.380;2023-03-02T10:03:01;13.80;;;7.60;;
8279;SDS011;8335;42.646;23.380;2023-03-02T10:05:33;8.53;;;7.10;;
8279;SDS011;8335;42.646;23.380;2023-03-02T10:08:04;7.63;;;6.10;;
8279;SDS011;8335;42.646;23.380;2023-03-02T10:10:33;8.73;;;6.77;;
8279;SDS011;8335;42.646;23.380;2023-03-02T10:13:09;6.87;;;6.10;;
8279;SDS011;8335;42.646;23.380;2023-03-02T10:15:50;7.17;;;6.30;;
8279;SDS011;8335;42.646;23.380;2023-03-02T10:18:29;7.67;;;6.37;;
8279;SDS011;8335;42.646;23.380;2023-03-02T10:21:02;7.57;;;6.47;;
8279;SDS011;8335;42.646;23.380;2023-03-02T10:23:38;8.17;;;6.07;;
8279;SDS011;8335;42.646;23.380;2023-03-02T10:26:12;8.07;;;6.40;;
8279;SDS011;8335;42.646;23.380;2023-03-02T10:28:46;9.00;;;6.80;;
8279;SDS011;8335;42.646;23.380;2023-03-02T10:31:17;9.30;;;7.00;;
8279;SDS011;8335;42.646;23.380;2023-03-02T10:33:51;8.70;;;6.43;;
8279;SDS011;8335;42.646;23.380;2023-03-02T10:36:20;7.43;;;5.97;;
8279;SDS011;8335;42.646;23.380;2023-03-02T10:38:48;6.97;;;5.40;;
8279;SDS011;8335;42.646;23.380;2023-03-02T10:41:16;8.50;;;6.67;;
8279;SDS011;8335;42.646;23.380;2023-03-02T10:43:49;7.97;;;6.10;;
8279;SDS011;8335;42.646;23.380;2023-03-02T10:46:17;9.20;;;7.10;;
8279;SDS011;8335;42.646;23.380;2023-03-02T10:48:49;7.67;;;6.10;;
8279;SDS011;8335;42.646;23.380;2023-03-02T10:51:20;8.80;;;6.03;;
8279;SDS011;8335;42.646;23.380;2023-03-02T10:53:48;7.60;;;6.10;;
8279;SDS011;8335;42.646;23.380;2023-03-02T10:56:17;8.63;;;6.43;;
8279;SDS011;8335;42.646;23.380;2023-03-02T10:58:45;12.43;;;6.50;;
8279;SDS011;8335;42.646;23.380;2023-03-02T11:01:14;9.10;;;6.00;;
8279;SDS011;8335;42.646;23.380;2023-03-02T11:03:54;6.80;;;5.43;;
8279;SDS011;8335;42.646;23.380;2023-03-02T11:06:21;7.27;;;5.70;;
8279;SDS011;8335;42.646;23.380;2023-03-02T11:08:57;7.07;;;5.60;;
8279;SDS011;8335;42.646;23.380;2023-03-02T11:11:25;8.53;;;6.00;;
8279;SDS011;8335;42.646;23.380;2023-03-02T11:13:52;7.17;;;5.73;;
8279;SDS011;8335;42.646;23.380;2023-03-02T11:16:24;8.20;;;5.83;;
8279;SDS011;8335;42.646;23.380;2023-03-02T11:18:56;8.60;;;6.07;;
8279;SDS011;8335;42.646;23.380;2023-03-02T11:21:28;10.33;;;6.70;;
8279;SDS011;8335;42.646;23.380;2023-03-02T11:24:01;9.20;;;6.23;;
8279;SDS011;8335;42.646;23.380;2023-03-02T11:26:33;13.43;;;7.13;;
8279;SDS011;8335;42.646;23.380;2023-03-02T11:29:03;8.13;;;6.20;;
8279;SDS011;8335;42.646;23.380;2023-03-02T11:31:37;9.23;;;6.20;;
8279;SDS011;8335;42.646;23.380;2023-03-02T11:36:59;8.67;;;6.27;;
8279;SDS011;8335;42.646;23.380;2023-03-02T11:39:31;8.03;;;5.83;;
8279;SDS011;8335;42.646;23.380;2023-03-02T11:42:06;9.50;;;6.30;;
8279;SDS011;8335;42.646;23.380;2023-03-02T11:44:44;7.27;;;5.40;;
8279;SDS011;8335;42.646;23.380;2023-03-02T11:47:11;8.83;;;6.23;;
8279;SDS011;8335;42.646;23.380;2023-03-02T11:49:41;9.20;;;6.10;;
8279;SDS011;8335;42.646;23.380;2023-03-02T11:52:14;10.67;;;6.20;;
8279;SDS011;8335;42.646;23.380;2023-03-02T11:54:44;9.20;;;5.73;;
8279;SDS011;8335;42.646;23.380;2023-03-02T11:57:17;8.97;;;5.50;;
8279;SDS011;8335;42.646;23.380;2023-03-02T11:59:47;8.27;;;5.43;;
8279;SDS011;8335;42.646;23.380;2023-03-02T12:02:16;9.57;;;5.40;;
8279;SDS011;8335;42.646;23.380;2023-03-02T12:04:45;10.87;;;5.13;;
8279;SDS011;8335;42.646;23.380;2023-03-02T12:07:16;10.00;;;5.80;;
8279;SDS011;8335;42.646;23.380;2023-03-02T12:09:55;8.17;;;5.93;;
8279;SDS011;8335;42.646;23.380;2023-03-02T12:12:32;10.00;;;5.20;;
8279;SDS011;8335;42.646;23.380;2023-03-02T12:17:59;11.33;;;5.97;;
8279;SDS011;8335;42.646;23.380;2023-03-02T12:20:27;10.20;;;5.63;;
8279;SDS011;8335;42.646;23.380;2023-03-02T12:23:05;9.33;;;5.57;;
8279;SDS011;8335;42.646;23.380;2023-03-02T12:25:38;9.37;;;6.07;;
8279;SDS011;8335;42.646;23.380;2023-03-02T12:30:55;12.27;;;6.50;;
8279;SDS011;8335;42.646;23.380;2023-03-02T12:33:22;7.93;;;5.93;;
8279;SDS011;8335;42.646;23.380;2023-03-02T12:35:59;9.50;;;6.30;;
8279;SDS011;8335;42.646;23.380;2023-03-02T12:38:30;8.10;;;5.60;;
8279;SDS011;8335;42.646;23.380;2023-03-02T12:41:10;9.23;;;5.70;;
8279;SDS011;8335;42.646;23.380;2023-03-02T12:43:46;12.23;;;5.77;;
8279;SDS011;8335;42.646;23.380;2023-03-02T12:46:24;9.33;;;6.30;;
8279;SDS011;8335;42.646;23.380;2023-03-02T12:48:57;8.97;;;5.80;;
8279;SDS011;8335;42.646;23.380;2023-03-02T12:51:28;7.70;;;5.80;;
8279;SDS011;8335;42.646;23.380;2023-03-02T12:54:01;15.13;;;7.07;;
8279;SDS011;8335;42.646;23.380;2023-03-02T12:56:28;8.73;;;6.93;;
8279;SDS011;8335;42.646;23.380;2023-03-02T12:58:55;9.90;;;6.67;;
8279;SDS011;8335;42.646;23.380;2023-03-02T13:01:23;8.27;;;7.07;;
8279;SDS011;8335;42.646;23.380;2023-03-02T13:03:52;10.77;;;7.37;;
8279;SDS011;8335;42.646;23.380;2023-03-02T13:06:19;9.40;;;6.47;;
8279;SDS011;8335;42.646;23.380;2023-03-02T13:08:50;9.97;;;6.70;;
8279;SDS011;8335;42.646;23.380;2023-03-02T13:11:21;8.20;;;5.70;;
8279;SDS011;8335;42.646;23.380;2023-03-02T13:13:51;7.47;;;5.40;;
8279;SDS011;8335;42.646;23.380;2023-03-02T13:16:19;7.10;;;4.70;;
8279;SDS011;8335;42.646;23.380;2023-03-02T13:18:48;6.77;;;5.80;;
8279;SDS011;8335;42.646;23.380;2023-03-02T13:21:18;8.07;;;6.17;;
8279;SDS011;8335;42.646;23.380;2023-03-02T13:23:47;12.80;;;7.10;;
8279;SDS011;8335;42.646;23.380;2023-03-02T13:26:23;11.67;;;7.23;;
8279;SDS011;8335;42.646;23.380;2023-03-02T13:28:58;13.10;;;8.10;;
8279;SDS011;8335;42.646;23.380;2023-03-02T13:31:26;12.47;;;7.97;;
8279;SDS011;8335;42.646;23.380;2023-03-02T13:33:52;11.00;;;7.63;;
8279;SDS011;8335;42.646;23.380;2023-03-02T13:36:22;10.13;;;7.13;;
8279;SDS011;8335;42.646;23.380;2023-03-02T13:38:52;10.73;;;7.80;;
8279;SDS011;8335;42.646;23.380;2023-03-02T13:41:22;11.47;;;8.17;;
8279;SDS011;8335;42.646;23.380;2023-03-02T13:43:50;12.47;;;8.13;;
8279;SDS011;8335;42.646;23.380;2023-03-02T13:46:24;10.23;;;7.93;;
8279;SDS011;8335;42.646;23.380;2023-03-02T13:49:00;21.67;;;8.20;;
8279;SDS011;8335;42.646;23.380;2023-03-02T13:51:29;11.10;;;8.40;;
8279;SDS011;8335;42.646;23.380;2023-03-02T13:53:59;13.83;;;8.50;;
8279;SDS011;8335;42.646;23.380;2023-03-02T13:56:30;10.70;;;7.57;;
8279;SDS011;8335;42.646;23.380;2023-03-02T13:58:59;12.33;;;7.80;;
8279;SDS011;8335;42.646;23.380;2023-03-02T14:01:26;14.93;;;8.03;;
8279;SDS011;8335;42.646;23.380;2023-03-02T14:03:53;12.43;;;8.47;;
8279;SDS011;8335;42.646;23.380;2023-03-02T14:06:20;12.70;;;7.87;;
8279;SDS011;8335;42.646;23.380;2023-03-02T14:08:47;12.13;;;8.40;;
8279;SDS011;8335;42.646;23.380;2023-03-02T14:11:14;12.73;;;8.70;;
8279;SDS011;8335;42.646;23.380;2023-03-02T14:13:44;19.47;;;12.07;;
8279;SDS011;8335;42.646;23.380;2023-03-02T14:16:13;13.10;;;8.43;;
8279;SDS011;8335;42.646;23.380;2023-03-02T14:18:42;15.27;;;9.13;;
8279;SDS011;8335;42.646;23.380;2023-03-02T14:21:11;16.47;;;10.47;;
8279;SDS011;8335;42.646;23.380;2023-03-02T14:23:38;15.50;;;9.90;;
8279;SDS011;8335;42.646;23.380;2023-03-02T14:26:12;13.40;;;9.40;;
8279;SDS011;8335;42.646;23.380;2023-03-02T14:28:47;14.40;;;9.03;;
8279;SDS011;8335;42.646;23.380;2023-03-02T14:31:14;17.63;;;10.00;;
8279;SDS011;8335;42.646;23.380;2023-03-02T14:33:42;14.10;;;8.90;;
8279;SDS011;8335;42.646;23.380;2023-03-02T14:36:10;17.33;;;9.30;;
8279;SDS011;8335;42.646;23.380;2023-03-02T14:38:40;13.43;;;8.80;;
8279;SDS011;8335;42.646;23.380;2023-03-02T14:41:09;16.17;;;10.13;;
8279;SDS011;8335;42.646;23.380;2023-03-02T14:43:39;13.27;;;8.93;;
8279;SDS011;8335;42.646;23.380;2023-03-02T14:46:07;15.03;;;9.60;;
8279;SDS011;8335;42.646;23.380;2023-03-02T14:48:33;14.43;;;8.40;;
8279;SDS011;8335;42.646;23.380;2023-03-02T14:51:00;10.37;;;7.63;;
8279;SDS011;8335;42.646;23.380;2023-03-02T14:53:28;14.13;;;8.47;;
8279;SDS011;8335;42.646;23.380;2023-03-02T14:55:58;10.87;;;8.03;;
8279;SDS011;8335;42.646;23.380;2023-03-02T14:58:27;14.10;;;8.27;;
8279;SDS011;8335;42.646;23.380;2023-03-02T15:00:56;16.50;;;8.33;;
8279;SDS011;8335;42.646;23.380;2023-03-02T15:03:24;14.50;;;8.80;;
8279;SDS011;8335;42.646;23.380;2023-03-02T15:05:52;13.67;;;8.57;;
8279;SDS011;8335;42.646;23.380;2023-03-02T15:08:20;13.13;;;8.77;;
8279;SDS011;8335;42.646;23.380;2023-03-02T15:10:48;14.67;;;9.73;;
8279;SDS011;8335;42.646;23.380;2023-03-02T15:13:15;17.07;;;9.40;;
8279;SDS011;8335;42.646;23.380;2023-03-02T15:15:42;13.20;;;9.40;;
8279;SDS011;8335;42.646;23.380;2023-03-02T15:18:10;14.40;;;8.90;;
8279;SDS011;8335;42.646;23.380;2023-03-02T15:20:40;14.83;;;9.00;;